Time;durP1;ratioP1;P1;durP2;ratioP2;P2;SDS_P1;SDS_P2;PMS_P1;PMS_P2;Temp;Humidity;BMP_temperature;BMP_pressure;BME280_temperature;BME280_humidity;BME280_pressure;Samples;Min_cycle;Max_cycle;Signal;HPM_P1;HPM_P2
2023/02/21 02:15:25;;;;;;;3.75;3.38;;;15.90;97.30;;;;;;5045857;28;20037;-75
2023/02/21 02:18:23;;;;;;;3.58;3.38;;;15.90;97.30;;;;;;5043005;28;20441;-75
2023/02/21 02:20:55;;;;;;;3.40;3.20;;;15.90;97.30;;;;;;5058752;28;20140;-75
2023/02/21 02:23:48;;;;;;;3.88;3.55;;;15.90;97.60;;;;;;5043368;28;20048;-75
2023/02/21 02:26:44;;;;;;;3.42;3.13;;;15.90;97.30;;;;;;5048027;28;20033;-76
2023/02/21 02:29:41;;;;;;;4.32;3.92;;;15.90;97.40;;;;;;5043705;28;20106;-76
2023/02/21 02:32:15;;;;;;;3.80;3.50;;;15.80;97.30;;;;;;5042579;28;20047;-76
2023/02/21 02:35:02;;;;;;;3.80;3.60;;;15.80;97.40;;;;;;5043808;28;20037;-76
2023/02/21 02:37:46;;;;;;;3.70;3.40;;;15.80;97.30;;;;;;5044328;28;20045;-76
2023/02/21 02:40:48;;;;;;;4.05;3.80;;;15.80;97.40;;;;;;5041121;28;20096;-75
2023/02/21 02:43:17;;;;;;;3.63;3.42;;;15.80;97.50;;;;;;5042339;28;20047;-75
2023/02/21 02:45:43;;;;;;;3.47;3.28;;;15.80;97.50;;;;;;5041440;28;20037;-75
2023/02/21 02:48:19;;;;;;;3.92;3.72;;;15.80;97.50;;;;;;5044372;28;20087;-75
2023/02/21 02:50:46;;;;;;;3.92;3.72;;;15.80;97.40;;;;;;5046544;28;20048;-76
2023/02/21 02:53:11;;;;;;;3.15;2.95;;;15.80;97.50;;;;;;5046122;28;20644;-75
2023/02/21 02:55:57;;;;;;;3.30;2.97;;;15.80;97.50;;;;;;5047861;28;20067;-76
2023/02/21 02:58:24;;;;;;;2.72;2.63;;;15.80;97.40;;;;;;5083799;28;20045;-75
2023/02/21 03:01:09;;;;;;;3.65;3.00;;;15.70;97.40;;;;;;5048100;28;20041;-75
2023/02/21 03:03:51;;;;;;;2.55;2.45;;;15.70;97.30;;;;;;5059197;28;20057;-76
2023/02/21 03:06:39;;;;;;;3.40;3.20;;;15.70;97.30;;;;;;5075201;28;20601;-76
2023/02/21 03:09:12;;;;;;;4.00;3.00;;;15.70;97.30;;;;;;5079019;28;20052;-76
2023/02/21 03:12:00;;;;;;;3.13;2.92;;;15.70;97.30;;;;;;5044500;28;20052;-76
2023/02/21 03:14:28;;;;;;;10.10;2.70;;;15.70;97.60;;;;;;5047309;28;20060;-75
2023/02/21 03:16:55;;;;;;;2.78;2.65;;;15.70;97.30;;;;;;5046799;28;20537;-76
2023/02/21 03:19:26;;;;;;;2.80;2.63;;;15.70;97.30;;;;;;5063869;28;20102;-75
2023/02/21 03:21:54;;;;;;;3.67;3.47;;;15.60;97.30;;;;;;5078655;28;20049;-76
2023/02/21 03:24:20;;;;;;;3.30;3.10;;;15.60;97.30;;;;;;5045788;28;20049;-76
2023/02/21 03:26:48;;;;;;;2.80;2.70;;;15.60;97.20;;;;;;5046462;28;20323;-76
2023/02/21 03:29:14;;;;;;;2.50;2.40;;;15.60;97.20;;;;;;5027705;28;20049;-76
2023/02/21 03:31:43;;;;;;;2.90;2.80;;;15.60;97.20;;;;;;5047946;28;20526;-76
2023/02/21 03:34:09;;;;;;;2.90;2.70;;;15.60;97.20;;;;;;5044024;28;20038;-76
2023/02/21 03:36:36;;;;;;;2.85;2.75;;;15.60;97.20;;;;;;5046930;28;20057;-77
2023/02/21 03:39:01;;;;;;;3.30;3.10;;;15.60;97.20;;;;;;5049255;28;20037;-76
2023/02/21 03:41:27;;;;;;;2.92;2.80;;;15.70;97.20;;;;;;5044645;28;20044;-76
2023/02/21 03:43:53;;;;;;;2.50;2.40;;;15.60;97.20;;;;;;5047572;28;20075;-76
2023/02/21 03:46:18;;;;;;;2.35;2.25;;;15.60;97.00;;;;;;5051743;28;20048;-76
2023/02/21 03:48:44;;;;;;;2.40;2.30;;;15.60;97.10;;;;;;5053562;28;20044;-76
2023/02/21 03:51:10;;;;;;;2.58;2.47;;;15.60;97.10;;;;;;5049048;28;20529;-76
2023/02/21 03:53:35;;;;;;;2.80;2.70;;;15.60;97.00;;;;;;5047288;28;20835;-76
2023/02/21 03:56:01;;;;;;;2.95;2.78;;;15.50;97.00;;;;;;5045879;28;20048;-76
2023/02/21 03:58:26;;;;;;;2.80;2.60;;;15.50;97.00;;;;;;5046748;28;20049;-76
2023/02/21 04:00:53;;;;;;;2.97;2.88;;;15.50;97.10;;;;;;5045597;28;20380;-75
2023/02/21 04:03:18;;;;;;;2.80;2.70;;;15.50;97.00;;;;;;5045316;28;20588;-76
2023/02/21 04:05:44;;;;;;;2.45;2.35;;;15.50;96.90;;;;;;5047806;28;20112;-75
2023/02/21 04:08:09;;;;;;;2.35;2.25;;;15.50;96.90;;;;;;5045700;28;20087;-75
2023/02/21 04:10:35;;;;;;;2.30;2.20;;;15.50;96.80;;;;;;5045763;28;20613;-76
2023/02/21 04:13:01;;;;;;;2.55;2.38;;;15.50;96.70;;;;;;5047534;28;20506;-75
2023/02/21 04:15:26;;;;;;;2.67;2.58;;;15.50;96.70;;;;;;5044522;28;20047;-76
2023/02/21 04:17:52;;;;;;;2.20;2.10;;;15.50;96.80;;;;;;5046013;28;20045;-76
2023/02/21 04:20:17;;;;;;;2.47;2.38;;;15.50;96.70;;;;;;5046807;28;20041;-76
2023/02/21 04:22:43;;;;;;;2.35;2.25;;;15.40;96.60;;;;;;5046733;28;20052;-76
2023/02/21 04:25:08;;;;;;;2.42;2.33;;;15.50;96.60;;;;;;5046141;28;20041;-76
2023/02/21 04:27:34;;;;;;;2.45;2.35;;;15.50;96.70;;;;;;5046452;28;20461;-76
2023/02/21 04:30:00;;;;;;;2.22;2.13;;;15.40;96.70;;;;;;5047558;28;20438;-76
2023/02/21 04:32:26;;;;;;;2.28;2.17;;;15.40;96.70;;;;;;5045237;28;20521;-76
2023/02/21 04:34:52;;;;;;;2.20;2.10;;;15.40;96.70;;;;;;5050173;28;20037;-76
2023/02/21 04:37:17;;;;;;;2.47;2.38;;;15.40;96.70;;;;;;5049164;28;20041;-76
2023/02/21 04:39:43;;;;;;;2.10;2.00;;;15.40;96.50;;;;;;5049220;28;20502;-76
2023/02/21 04:42:08;;;;;;;2.10;2.00;;;15.40;96.70;;;;;;5046799;28;20041;-76
2023/02/21 04:44:34;;;;;;;2.50;2.30;;;15.40;96.60;;;;;;5045741;28;20044;-76
2023/02/21 04:47:00;;;;;;;2.00;1.90;;;15.40;96.70;;;;;;5065068;28;20060;-76
2023/02/21 04:49:26;;;;;;;2.50;2.40;;;15.40;96.50;;;;;;5066631;28;20052;-75
2023/02/21 04:51:52;;;;;;;2.28;2.17;;;15.40;96.60;;;;;;5055625;28;20734;-76
2023/02/21 04:54:18;;;;;;;2.00;1.90;;;15.40;96.60;;;;;;5047510;28;20045;-76
2023/02/21 04:56:44;;;;;;;2.20;2.10;;;15.40;96.60;;;;;;5047807;28;20041;-76
2023/02/21 04:59:09;;;;;;;2.00;1.90;;;15.40;96.60;;;;;;5044895;28;20048;-76
2023/02/21 05:01:35;;;;;;;2.17;2.08;;;15.30;96.50;;;;;;5051780;28;20052;-76
2023/02/21 05:04:00;;;;;;;2.10;2.00;;;15.30;96.60;;;;;;5043605;28;20045;-75
2023/02/21 05:06:27;;;;;;;2.05;1.95;;;15.40;96.50;;;;;;5043584;28;20518;-76
2023/02/21 05:08:52;;;;;;;2.45;2.25;;;15.40;96.70;;;;;;5048774;28;20418;-76
2023/02/21 05:11:18;;;;;;;1.73;1.63;;;15.40;96.60;;;;;;5046190;28;20052;-76
2023/02/21 05:13:44;;;;;;;1.88;1.77;;;15.30;96.50;;;;;;5048763;28;20049;-76
2023/02/21 05:16:10;;;;;;;1.88;1.77;;;15.30;96.60;;;;;;5054511;28;20470;-76
2023/02/21 05:18:37;;;;;;;2.00;1.90;;;15.30;96.60;;;;;;5053672;28;20045;-76
2023/02/21 05:21:06;;;;;;;1.70;1.60;;;15.40;96.80;;;;;;5046074;28;20064;-76
2023/02/21 05:23:34;;;;;;;1.80;1.70;;;15.30;96.50;;;;;;5042715;28;20040;-76
2023/02/21 05:26:04;;;;;;;1.80;1.70;;;15.30;96.50;;;;;;5048310;28;20039;-75
2023/02/21 05:28:29;;;;;;;1.75;1.65;;;15.30;96.50;;;;;;5044798;28;20441;-75
2023/02/21 05:30:55;;;;;;;1.85;1.75;;;15.30;96.50;;;;;;5056206;28;20067;-76
2023/02/21 05:33:21;;;;;;;1.63;1.52;;;15.30;96.60;;;;;;5044373;28;20048;-76
2023/02/21 05:35:47;;;;;;;1.92;1.83;;;15.30;96.80;;;;;;5048085;28;20055;-75
2023/02/21 05:38:13;;;;;;;1.35;1.35;;;15.30;96.60;;;;;;5043618;28;20140;-75
2023/02/21 05:40:39;;;;;;;2.25;2.10;;;15.30;96.60;;;;;;5046420;28;20044;-75
2023/02/21 05:43:05;;;;;;;1.67;1.58;;;15.30;96.60;;;;;;5045777;28;20048;-75
2023/02/21 05:45:30;;;;;;;2.00;1.90;;;15.30;96.50;;;;;;5048211;28;20402;-75
2023/02/21 05:47:59;;;;;;;1.65;1.55;;;15.30;96.40;;;;;;5044912;28;20079;-75
2023/02/21 05:50:25;;;;;;;1.60;1.50;;;15.20;96.40;;;;;;5063553;28;20494;-76
2023/02/21 05:52:51;;;;;;;1.60;1.50;;;15.20;96.50;;;;;;5054434;28;20135;-76
2023/02/21 05:55:17;;;;;;;1.85;1.75;;;15.20;96.50;;;;;;5043498;28;20033;-76
2023/02/21 05:57:42;;;;;;;1.70;1.60;;;15.20;96.50;;;;;;5041702;28;20043;-76
2023/02/21 06:00:17;;;;;;;1.75;1.65;;;15.20;96.40;;;;;;5046203;28;20037;-76
2023/02/21 06:02:43;;;;;;;4.88;1.33;;;15.20;96.50;;;;;;5063148;28;20044;-75
2023/02/21 06:05:09;;;;;;;1.55;1.45;;;15.20;96.50;;;;;;5044729;28;20045;-75
2023/02/21 06:07:35;;;;;;;1.38;1.38;;;15.20;96.50;;;;;;5051569;28;20510;-75
2023/02/21 06:10:00;;;;;;;1.58;1.48;;;15.20;96.50;;;;;;5042881;28;20044;-75
2023/02/21 06:12:26;;;;;;;1.52;1.50;;;15.20;96.40;;;;;;5060073;28;20047;-75
2023/02/21 06:14:51;;;;;;;1.70;1.60;;;15.20;96.40;;;;;;5044176;28;20510;-75
2023/02/21 06:17:17;;;;;;;1.52;1.42;;;15.20;96.40;;;;;;5044443;28;20131;-75
2023/02/21 06:19:43;;;;;;;1.52;1.52;;;15.20;96.40;;;;;;5044538;28;20045;-75
2023/02/21 06:22:08;;;;;;;1.30;1.30;;;15.20;96.40;;;;;;5044864;28;20038;-75
2023/02/21 06:24:34;;;;;;;1.75;1.65;;;15.20;96.40;;;;;;5043930;28;20064;-75
2023/02/21 06:26:59;;;;;;;1.35;1.35;;;15.20;96.40;;;;;;5041087;28;20047;-75
2023/02/21 06:29:25;;;;;;;1.50;1.40;;;15.20;96.50;;;;;;5062567;28;20044;-75
2023/02/21 06:31:56;;;;;;;1.20;1.20;;;15.20;96.40;;;;;;5048508;28;20120;-75
2023/02/21 06:34:22;;;;;;;1.33;1.30;;;15.20;96.40;;;;;;5048635;28;20053;-76
2023/02/21 06:36:51;;;;;;;1.10;1.10;;;15.20;96.50;;;;;;5048198;28;20121;-75
2023/02/21 06:39:16;;;;;;;1.10;1.10;;;15.20;96.50;;;;;;5049671;28;20136;-74
2023/02/21 06:41:42;;;;;;;1.33;1.33;;;15.10;96.50;;;;;;5049687;28;20129;-74
2023/02/21 06:44:07;;;;;;;1.15;1.15;;;15.20;96.80;;;;;;5047766;28;20041;-76
2023/02/21 06:46:35;;;;;;;3.50;1.88;;;15.30;96.90;;;;;;5050264;28;20559;-75
2023/02/21 06:49:00;;;;;;;2.65;1.33;;;15.30;96.60;;;;;;5046617;28;20044;-74
2023/02/21 06:51:28;;;;;;;3.45;1.02;;;15.30;96.30;;;;;;5063729;28;20045;-74
2023/02/21 06:53:54;;;;;;;2.70;1.85;;;15.30;96.70;;;;;;5048375;28;20134;-74
2023/02/21 06:56:19;;;;;;;2.30;2.20;;;15.40;96.70;;;;;;5047443;28;20459;-75
2023/02/21 06:58:45;;;;;;;4.60;3.75;;;15.50;96.60;;;;;;5080129;28;20045;-74
2023/02/21 07:01:10;;;;;;;4.70;4.35;;;15.60;96.60;;;;;;5052920;28;20530;-73
2023/02/21 07:03:43;;;;;;;5.03;3.78;;;15.70;96.60;;;;;;5045677;28;20064;-75
2023/02/21 07:06:08;;;;;;;6.10;4.05;;;15.70;96.50;;;;;;5045224;28;20057;-74
2023/02/21 07:08:34;;;;;;;4.25;3.90;;;15.80;96.30;;;;;;5048787;28;20041;-75
2023/02/21 07:11:00;;;;;;;4.70;3.60;;;15.90;96.30;;;;;;5047837;28;20086;-75
2023/02/21 07:13:25;;;;;;;3.30;2.97;;;15.90;96.30;;;;;;5048040;28;20045;-75
2023/02/21 07:15:51;;;;;;;3.85;3.55;;;16.00;96.00;;;;;;5048126;28;20064;-74
2023/02/21 07:18:16;;;;;;;3.45;3.20;;;16.10;95.90;;;;;;5062661;28;20048;-73
2023/02/21 07:20:42;;;;;;;3.92;3.50;;;16.20;95.70;;;;;;5061499;28;20037;-73
2023/02/21 07:23:07;;;;;;;4.63;3.20;;;16.20;95.60;;;;;;5047264;28;20937;-73
2023/02/21 07:25:33;;;;;;;3.00;2.70;;;16.30;95.60;;;;;;5050210;28;20128;-72
2023/02/21 07:27:59;;;;;;;2.88;2.67;;;16.30;95.50;;;;;;5050326;28;20836;-72
2023/02/21 07:30:24;;;;;;;2.90;2.65;;;16.30;95.50;;;;;;5061515;28;20107;-73
2023/02/21 07:32:50;;;;;;;2.70;2.50;;;16.30;95.50;;;;;;5046024;28;20497;-73
2023/02/21 07:35:15;;;;;;;2.58;2.35;;;16.40;95.40;;;;;;5044508;28;20095;-74
2023/02/21 07:37:41;;;;;;;2.80;2.60;;;16.50;95.40;;;;;;5046651;28;20045;-74
2023/02/21 07:40:07;;;;;;;2.85;2.65;;;16.50;95.30;;;;;;5043328;28;20037;-74
2023/02/21 07:42:33;;;;;;;3.47;2.58;;;16.40;95.20;;;;;;5044690;28;20045;-74
2023/02/21 07:44:58;;;;;;;3.20;3.00;;;16.40;95.20;;;;;;5045311;28;20499;-74
2023/02/21 07:47:24;;;;;;;3.47;2.80;;;16.40;95.10;;;;;;5046845;28;20063;-74
2023/02/21 07:49:50;;;;;;;3.95;2.53;;;16.50;95.10;;;;;;5048123;28;20062;-74
2023/02/21 07:52:16;;;;;;;2.97;2.63;;;16.50;95.00;;;;;;5049268;28;20405;-74
2023/02/21 07:54:41;;;;;;;2.75;2.55;;;16.50;95.00;;;;;;5037331;28;20494;-76
2023/02/21 07:57:07;;;;;;;2.90;2.70;;;16.60;95.00;;;;;;5056921;28;20040;-75
2023/02/21 07:59:33;;;;;;;4.80;4.40;;;16.70;94.80;;;;;;5048395;28;20041;-74
2023/02/21 08:01:58;;;;;;;5.18;4.85;;;16.90;94.90;;;;;;5048839;28;20058;-74
2023/02/21 08:04:24;;;;;;;7.55;6.80;;;17.10;94.50;;;;;;5048395;28;20051;-75
2023/02/21 08:06:50;;;;;;;8.10;7.40;;;17.30;94.20;;;;;;5046436;28;20048;-79
2023/02/21 08:09:15;;;;;;;7.10;6.60;;;17.40;94.00;;;;;;5048853;28;20411;-76
2023/02/21 08:11:41;;;;;;;7.55;6.95;;;17.40;93.90;;;;;;5050289;28;20037;-77
2023/02/21 08:14:06;;;;;;;7.22;6.72;;;17.50;93.80;;;;;;5045545;28;20045;-78
2023/02/21 08:16:32;;;;;;;7.40;6.75;;;17.50;93.70;;;;;;5055590;28;20045;-78
2023/02/21 08:18:58;;;;;;;7.85;7.25;;;17.70;93.60;;;;;;5042844;28;20044;-78
2023/02/21 08:21:23;;;;;;;7.80;7.07;;;18.00;93.40;;;;;;5046942;28;20109;-79
2023/02/21 08:23:53;;;;;;;6.90;6.32;;;18.20;93.30;;;;;;5049344;28;20044;-79
2023/02/21 08:26:19;;;;;;;6.75;6.10;;;18.40;93.50;;;;;;5047302;28;20044;-80
2023/02/21 08:28:44;;;;;;;6.18;5.72;;;18.50;93.70;;;;;;5048953;28;20041;-79
2023/02/21 08:31:10;;;;;;;7.00;6.20;;;18.70;93.50;;;;;;5045094;28;20048;-78
2023/02/21 08:33:35;;;;;;;6.32;5.60;;;18.70;93.30;;;;;;5047026;28;20388;-79
2023/02/21 08:36:01;;;;;;;6.25;5.85;;;18.80;93.20;;;;;;5047891;28;20112;-79
2023/02/21 08:38:26;;;;;;;6.05;5.45;;;18.80;93.00;;;;;;5048215;28;20040;-79
2023/02/21 08:40:52;;;;;;;6.78;5.95;;;18.80;92.90;;;;;;5060946;28;20041;-79
2023/02/21 08:43:18;;;;;;;5.95;5.60;;;18.90;93.00;;;;;;5068391;28;20070;-79
2023/02/21 08:45:43;;;;;;;5.72;5.40;;;18.90;92.90;;;;;;5065167;28;20360;-79
2023/02/21 08:48:09;;;;;;;6.18;5.78;;;18.90;92.80;;;;;;5064240;28;20044;-75
2023/02/21 08:50:34;;;;;;;5.95;5.47;;;19.00;92.80;;;;;;5067461;28;20051;-75
2023/02/21 08:53:00;;;;;;;5.85;5.28;;;18.90;92.90;;;;;;5066392;28;20120;-75
2023/02/21 08:55:27;;;;;;;11.57;5.30;;;18.90;92.60;;;;;;5045625;28;20506;-75
2023/02/21 08:57:52;;;;;;;5.25;4.85;;;18.90;92.60;;;;;;5045446;28;20094;-74
2023/02/21 09:00:22;;;;;;;5.43;4.90;;;18.90;92.60;;;;;;5045631;28;20033;-75
2023/02/21 09:02:48;;;;;;;5.40;5.10;;;18.90;92.70;;;;;;5045934;28;20526;-74
2023/02/21 09:05:16;;;;;;;7.38;4.97;;;18.90;92.60;;;;;;5042692;28;20037;-75
2023/02/21 09:07:41;;;;;;;4.70;4.40;;;18.90;92.70;;;;;;5048417;28;20103;-75
2023/02/21 09:10:09;;;;;;;5.03;4.65;;;18.80;92.70;;;;;;5045663;28;20119;-74
2023/02/21 09:12:35;;;;;;;5.22;4.90;;;18.90;92.70;;;;;;5063823;28;20053;-75
2023/02/21 09:15:00;;;;;;;5.25;4.95;;;18.80;92.80;;;;;;5048465;28;20158;-74
2023/02/21 09:17:26;;;;;;;4.78;4.38;;;18.80;92.80;;;;;;5051901;28;20037;-75
2023/02/21 09:19:51;;;;;;;5.47;5.07;;;18.70;92.80;;;;;;5049088;28;20406;-74
2023/02/21 09:22:17;;;;;;;4.97;4.57;;;18.70;92.80;;;;;;5054400;28;20146;-74
2023/02/21 09:24:43;;;;;;;5.20;4.80;;;18.60;92.90;;;;;;5057145;28;20045;-75
2023/02/21 09:27:08;;;;;;;4.07;3.88;;;18.60;93.00;;;;;;5047662;28;20490;-76
2023/02/21 09:29:34;;;;;;;4.47;4.20;;;18.50;93.10;;;;;;5051890;28;20126;-77
2023/02/21 09:32:00;;;;;;;4.20;3.92;;;18.40;93.10;;;;;;5064610;28;20048;-76
2023/02/21 09:34:26;;;;;;;4.10;3.80;;;18.40;93.20;;;;;;5043018;28;20049;-76
2023/02/21 09:36:53;;;;;;;4.22;3.80;;;18.40;93.20;;;;;;5044319;28;20552;-75
2023/02/21 09:39:20;;;;;;;3.42;3.33;;;18.40;93.30;;;;;;5053844;28;20041;-75
2023/02/21 09:41:46;;;;;;;4.50;4.07;;;18.40;93.30;;;;;;5042748;28;20044;-76
2023/02/21 09:44:15;;;;;;;4.35;4.07;;;18.40;93.40;;;;;;5055396;28;20460;-76
2023/02/21 09:46:41;;;;;;;4.10;3.80;;;18.30;93.60;;;;;;5066526;28;20060;-77
2023/02/21 09:49:21;;;;;;;4.57;4.28;;;18.20;93.70;;;;;;5065013;28;20124;-77
2023/02/21 09:51:48;;;;;;;4.40;4.10;;;18.20;93.80;;;;;;5046449;28;20035;-76
2023/02/21 09:54:34;;;;;;;3.78;3.47;;;18.20;93.80;;;;;;5043027;28;20052;-76
2023/02/21 09:57:02;;;;;;;3.50;3.30;;;18.10;94.00;;;;;;5063041;28;20033;-77
2023/02/21 09:59:28;;;;;;;4.10;3.83;;;18.20;93.90;;;;;;5029941;28;20129;-78
2023/02/21 10:02:30;;;;;;;3.72;3.25;;;18.10;93.90;;;;;;5041136;28;20072;-78
2023/02/21 10:05:14;;;;;;;3.85;3.55;;;18.20;93.80;;;;;;5055530;28;20055;-79
2023/02/21 10:07:58;;;;;;;3.50;3.30;;;18.10;94.00;;;;;;5046005;28;20131;-79
2023/02/21 10:10:27;;;;;;;3.90;3.60;;;18.20;94.00;;;;;;5045739;28;20072;-77
2023/02/21 10:13:01;;;;;;;3.60;3.40;;;18.10;94.10;;;;;;5046460;28;20044;-79
2023/02/21 10:15:51;;;;;;;3.67;3.47;;;18.20;94.10;;;;;;5044697;28;20497;-78
2023/02/21 10:18:35;;;;;;;3.60;3.13;;;18.20;94.10;;;;;;5044551;28;20053;-78
2023/02/21 10:21:04;;;;;;;3.72;3.53;;;18.20;94.00;;;;;;5046497;28;20064;-76
2023/02/21 10:23:48;;;;;;;3.42;3.25;;;18.30;94.00;;;;;;5063702;28;20080;-78
2023/02/21 10:26:25;;;;;;;3.58;3.38;;;18.30;94.00;;;;;;5064984;28;20053;-77
2023/02/21 10:28:51;;;;;;;3.10;3.00;;;18.30;94.00;;;;;;5039633;28;20040;-79
2023/02/21 10:31:34;;;;;;;3.25;3.05;;;18.30;94.00;;;;;;5056946;28;20437;-78
2023/02/21 10:34:01;;;;;;;3.28;3.10;;;18.40;94.10;;;;;;5063495;28;20052;-77
2023/02/21 10:36:27;;;;;;;3.17;3.08;;;18.30;94.00;;;;;;5044042;28;20089;-77
2023/02/21 10:39:20;;;;;;;3.00;2.90;;;18.30;94.10;;;;;;5045592;28;20485;-79
2023/02/21 10:41:45;;;;;;;3.03;2.83;;;18.30;94.10;;;;;;5042652;28;20049;-77
2023/02/21 10:44:17;;;;;;;2.97;2.88;;;18.30;94.10;;;;;;5044587;28;20036;-77
2023/02/21 10:47:04;;;;;;;2.97;2.88;;;18.30;94.10;;;;;;5045922;28;20510;-76
2023/02/21 10:50:06;;;;;;;3.05;2.85;;;18.30;94.20;;;;;;5064788;28;20044;-75
2023/02/21 10:52:48;;;;;;;3.70;3.50;;;18.40;94.30;;;;;;5041335;28;20045;-75
2023/02/21 10:55:17;;;;;;;3.10;2.90;;;18.50;94.30;;;;;;5049538;28;20509;-75
2023/02/21 10:57:44;;;;;;;4.53;3.00;;;18.50;94.30;;;;;;5054905;28;20048;-78
2023/02/21 11:00:29;;;;;;;3.03;2.92;;;18.40;94.20;;;;;;5032743;28;20037;-78
2023/02/21 11:02:56;;;;;;;3.97;3.70;;;18.40;94.30;;;;;;5009672;28;20048;-77
2023/02/21 11:05:22;;;;;;;5.38;4.35;;;18.30;94.30;;;;;;5043406;28;20045;-76
2023/02/21 11:07:59;;;;;;;5.45;4.90;;;18.30;94.40;;;;;;5034632;28;20036;-78
2023/02/21 11:10:31;;;;;;;7.30;5.43;;;18.30;94.60;;;;;;5049544;28;20049;-78
2023/02/21 11:13:06;;;;;;;11.95;6.82;;;18.40;94.80;;;;;;5041480;28;20056;-78
2023/02/21 11:15:31;;;;;;;13.25;6.22;;;18.40;94.80;;;;;;5042519;28;20068;-78
2023/02/21 11:18:18;;;;;;;13.40;6.90;;;18.30;94.90;;;;;;5060830;28;20474;-78
2023/02/21 11:20:44;;;;;;;11.65;6.65;;;18.30;95.00;;;;;;5044144;28;20048;-76
2023/02/21 11:23:27;;;;;;;14.82;7.82;;;18.30;95.10;;;;;;5063917;28;20041;-76
2023/02/21 11:26:06;;;;;;;12.02;6.32;;;18.20;95.20;;;;;;5047495;28;20132;-76
2023/02/21 11:28:36;;;;;;;13.40;7.90;;;18.30;95.10;;;;;;5058367;28;20143;-78
2023/02/21 11:31:02;;;;;;;15.73;7.57;;;18.30;95.10;;;;;;5044313;28;20041;-79
2023/02/21 11:33:27;;;;;;;14.77;7.50;;;18.30;95.20;;;;;;5052244;28;20461;-75
2023/02/21 11:36:05;;;;;;;14.90;7.72;;;18.30;95.40;;;;;;5047364;28;20049;-77
2023/02/21 11:38:36;;;;;;;13.82;8.13;;;18.30;95.10;;;;;;5040877;28;20044;-75
2023/02/21 11:41:26;;;;;;;14.00;7.15;;;18.30;95.00;;;;;;5048776;28;20051;-75
2023/02/21 11:43:52;;;;;;;12.27;7.43;;;18.30;95.10;;;;;;5061046;28;20040;-78
2023/02/21 11:46:45;;;;;;;14.25;7.20;;;18.30;95.20;;;;;;5078879;28;20067;-74
2023/02/21 11:49:13;;;;;;;12.38;7.15;;;18.30;95.30;;;;;;5046171;28;20060;-75
2023/02/21 11:51:43;;;;;;;10.93;6.55;;;18.40;95.20;;;;;;5047441;28;20054;-76
2023/02/21 11:54:09;;;;;;;10.93;7.50;;;18.40;95.00;;;;;;5068801;28;20043;-77
2023/02/21 11:56:48;;;;;;;9.68;6.32;;;18.40;95.00;;;;;;5041771;28;20037;-77
2023/02/21 11:59:29;;;;;;;12.68;6.40;;;18.40;94.90;;;;;;5044676;28;20096;-77
2023/02/21 12:02:18;;;;;;;12.20;6.18;;;18.50;94.80;;;;;;5051152;28;20414;-77
2023/02/21 12:05:02;;;;;;;12.23;7.00;;;18.50;94.70;;;;;;5057478;28;20052;-77
2023/02/21 12:07:34;;;;;;;9.25;5.60;;;18.50;94.80;;;;;;5044251;28;20545;-76
2023/02/21 12:10:15;;;;;;;11.43;6.32;;;18.50;94.60;;;;;;5038088;28;20037;-77
2023/02/21 12:12:45;;;;;;;12.68;6.35;;;18.50;94.70;;;;;;5037112;28;20063;-77
2023/02/21 12:15:20;;;;;;;10.82;6.18;;;18.50;94.60;;;;;;5044187;28;20037;-77
2023/02/21 12:17:57;;;;;;;9.60;6.03;;;18.50;94.50;;;;;;5042769;28;20045;-78
2023/02/21 12:20:54;;;;;;;8.32;5.93;;;18.50;94.50;;;;;;5042311;28;20029;-74
2023/02/21 12:23:40;;;;;;;10.23;5.82;;;18.50;94.60;;;;;;5045670;28;20131;-75
2023/02/21 12:26:28;;;;;;;8.50;5.20;;;18.50;94.70;;;;;;5076808;28;20066;-76
2023/02/21 12:29:00;;;;;;;22.98;15.57;;;18.50;94.70;;;;;;5053404;28;20029;-74
2023/02/21 12:31:30;;;;;;;26.15;16.30;;;18.50;94.60;;;;;;5043043;28;20049;-74
2023/02/21 12:34:23;;;;;;;27.73;17.30;;;18.50;94.60;;;;;;5042144;28;20040;-74
2023/02/21 12:36:49;;;;;;;29.48;18.63;;;18.50;94.60;;;;;;5052965;28;20060;-75
2023/02/21 12:39:40;;;;;;;27.77;17.23;;;18.50;94.60;;;;;;5055652;28;20243;-75
2023/02/21 12:42:06;;;;;;;26.27;16.48;;;18.50;94.60;;;;;;5041923;28;20041;-75
2023/02/21 12:44:53;;;;;;;23.00;14.70;;;18.50;94.60;;;;;;5037981;28;20510;-75
2023/02/21 12:47:25;;;;;;;22.80;13.95;;;18.50;94.60;;;;;;5040949;28;20045;-75
2023/02/21 12:50:13;;;;;;;23.55;15.90;;;18.50;94.60;;;;;;5041211;28;20033;-75
2023/02/21 12:53:00;;;;;;;21.15;14.40;;;18.50;94.80;;;;;;4697297;28;10000665;-75
2023/02/21 12:55:28;;;;;;;20.70;14.02;;;18.40;94.60;;;;;;5054804;28;20063;-74
2023/02/21 12:58:11;;;;;;;22.73;13.63;;;18.60;94.50;;;;;;5025225;28;20452;-74
2023/02/21 13:01:14;;;;;;;24.52;14.55;;;18.60;94.50;;;;;;5046013;28;20116;-74
2023/02/21 13:04:02;;;;;;;20.92;14.15;;;18.60;94.60;;;;;;5043763;28;20045;-74
2023/02/21 13:06:57;;;;;;;20.67;13.43;;;18.50;94.60;;;;;;5047883;28;20068;-74
2023/02/21 13:09:41;;;;;;;;;;;18.50;94.60;;;;;;5050789;28;20056;-75
2023/02/21 13:12:13;;;;;;;17.98;12.43;;;18.60;94.60;;;;;;5046482;28;19922;-75
2023/02/21 13:14:51;;;;;;;16.95;11.93;;;18.50;94.50;;;;;;5046000;28;20041;-75
2023/02/21 13:17:17;;;;;;;17.42;11.00;;;18.50;94.50;;;;;;5053336;28;20050;-75
2023/02/21 13:19:49;;;;;;;17.77;11.75;;;18.60;94.50;;;;;;5046120;28;20033;-75
2023/02/21 13:25:47;;;;;;;16.75;12.10;;;18.60;94.60;;;;;;5044574;28;20972;-76
2023/02/21 13:28:27;;;;;;;16.83;11.30;;;18.60;94.50;;;;;;5043558;28;20056;-77
2023/02/21 13:30:57;;;;;;;17.20;12.10;;;18.60;94.60;;;;;;5043482;28;20378;-76
2023/02/21 13:33:37;;;;;;;14.32;11.15;;;18.60;94.70;;;;;;5047877;28;20079;-76
2023/02/21 13:36:22;;;;;;;15.65;11.70;;;18.50;94.70;;;;;;5029524;28;20102;-76
2023/02/21 13:39:09;;;;;;;16.27;10.55;;;18.50;94.70;;;;;;5028344;28;20053;-75
2023/02/21 13:41:45;;;;;;;13.13;10.48;;;18.50;94.80;;;;;;5030998;28;20811;-78
2023/02/21 13:44:17;;;;;;;13.80;10.63;;;18.50;94.80;;;;;;5034778;28;20171;-79
2023/02/21 13:46:42;;;;;;;14.88;11.18;;;18.50;94.80;;;;;;5037623;28;20051;-79
2023/02/21 13:49:36;;;;;;;13.15;9.82;;;18.50;94.90;;;;;;5030931;28;20045;-79
2023/02/21 13:52:23;;;;;;;14.18;9.70;;;18.40;94.90;;;;;;5035400;28;20048;-77
2023/02/21 13:55:11;;;;;;;12.55;10.05;;;18.30;94.90;;;;;;5050501;28;20550;-79
2023/02/21 13:57:39;;;;;;;12.93;9.70;;;18.40;95.00;;;;;;5051611;28;20127;-75
2023/02/21 14:00:23;;;;;;;14.23;10.32;;;18.40;95.00;;;;;;5037216;28;20523;-75
2023/02/21 14:03:11;;;;;;;11.45;9.75;;;18.40;94.90;;;;;;5029034;28;20045;-75
2023/02/21 14:05:46;;;;;;;9.60;8.60;;;18.40;95.30;;;;;;5046231;28;20044;-76
2023/02/21 14:08:23;;;;;;;11.68;9.45;;;18.30;95.00;;;;;;5043224;28;20036;-75
2023/02/21 14:10:51;;;;;;;10.75;8.30;;;18.30;95.10;;;;;;5039777;28;20102;-75
2023/02/21 14:13:18;;;;;;;11.18;8.75;;;18.20;95.10;;;;;;5035662;28;20470;-76
2023/02/21 14:15:45;;;;;;;11.02;8.27;;;18.10;95.20;;;;;;5039015;28;20056;-76
2023/02/21 14:18:19;;;;;;;9.80;8.27;;;18.10;95.30;;;;;;5029073;28;20037;-76
2023/02/21 14:20:46;;;;;;;;;;;18.10;95.40;;;;;;5027610;28;20485;-76
2023/02/21 14:23:16;;;;;;;9.43;7.43;;;18.00;95.40;;;;;;5030769;28;19925;-76
2023/02/21 14:25:42;;;;;;;10.25;7.68;;;18.00;95.40;;;;;;5029285;28;20044;-77
2023/02/21 14:28:45;;;;;;;8.50;7.25;;;18.00;95.40;;;;;;5029221;28;20059;-75
2023/02/21 14:31:11;;;;;;;7.78;6.75;;;18.00;95.50;;;;;;5051907;28;20040;-76
2023/02/21 14:33:36;;;;;;;7.38;6.57;;;18.00;95.60;;;;;;5049777;28;20055;-76
2023/02/21 14:36:05;;;;;;;8.88;7.70;;;17.90;95.60;;;;;;5038417;28;20076;-75
2023/02/21 14:38:33;;;;;;;9.70;7.82;;;17.90;95.70;;;;;;5033924;28;20059;-75
2023/02/21 14:41:38;;;;;;;8.50;7.57;;;17.90;95.70;;;;;;5025531;28;20072;-75
2023/02/21 14:44:17;;;;;;;9.88;7.60;;;17.80;95.70;;;;;;5037045;28;20063;-75
2023/02/21 14:47:15;;;;;;;7.70;6.63;;;17.80;95.80;;;;;;5040246;28;20045;-75
2023/02/21 14:50:14;;;;;;;7.18;6.43;;;17.80;95.80;;;;;;4998942;28;20134;-76
2023/02/21 14:52:46;;;;;;;7.50;6.75;;;17.80;95.80;;;;;;5043550;28;20053;-75
2023/02/21 14:55:30;;;;;;;7.95;7.15;;;17.80;95.80;;;;;;5054111;28;20660;-76
2023/02/21 14:58:15;;;;;;;7.22;6.53;;;17.80;95.80;;;;;;5035625;28;20063;-77
2023/02/21 15:00:59;;;;;;;7.07;6.15;;;17.80;95.80;;;;;;5052786;28;20084;-76
2023/02/21 15:03:30;;;;;;;6.97;6.38;;;17.80;95.90;;;;;;5052766;28;20116;-76
2023/02/21 15:06:06;;;;;;;6.95;6.22;;;17.70;95.90;;;;;;5035630;28;20576;-76
2023/02/21 15:08:43;;;;;;;7.07;6.47;;;17.70;96.00;;;;;;5051344;28;20079;-76
2023/02/21 15:11:20;;;;;;;9.30;6.13;;;17.70;96.10;;;;;;5028643;28;21553;-76
2023/02/21 15:13:46;;;;;;;7.45;6.53;;;17.70;96.10;;;;;;5038267;28;20816;-75
2023/02/21 15:16:13;;;;;;;6.93;6.07;;;17.60;96.10;;;;;;5042136;28;20044;-74
2023/02/21 15:18:40;;;;;;;6.25;5.65;;;17.60;96.10;;;;;;5050132;28;20052;-75
2023/02/21 15:21:15;;;;;;;5.82;5.25;;;17.60;96.20;;;;;;5035745;28;20045;-75
2023/02/21 15:23:42;;;;;;;6.68;6.03;;;17.60;96.30;;;;;;5050791;28;20052;-78